Time;durP1;ratioP1;P1;durP2;ratioP2;P2;SDS_P1;SDS_P2;PMS_P1;PMS_P2;Temp;Humidity;BMP_temperature;BMP_pressure;BME280_temperature;BME280_humidity;BME280_pressure;Samples;Min_cycle;Max_cycle;Signal;HPM_P1;HPM_P2
2022/09/07 00:00:17;;;;;;;7.13;2.10;;;20.60;72.00;;;;;;5074495;28;20017;-77
2022/09/07 00:02:43;;;;;;;5.85;2.08;;;20.50;72.30;;;;;;5074760;28;20119;-74
2022/09/07 00:05:08;;;;;;;5.10;2.22;;;20.50;72.40;;;;;;5074517;28;20016;-76
2022/09/07 00:07:34;;;;;;;6.50;2.22;;;20.40;72.70;;;;;;5074340;28;20388;-77
2022/09/07 00:10:00;;;;;;;8.02;1.88;;;20.40;72.80;;;;;;5074323;28;20374;-74
2022/09/07 00:12:25;;;;;;;5.72;2.10;;;20.40;72.70;;;;;;5073599;28;20028;-75
2022/09/07 00:14:51;;;;;;;6.70;1.98;;;20.40;72.40;;;;;;5074456;28;20032;-75
2022/09/07 00:17:17;;;;;;;3.88;1.92;;;20.40;72.40;;;;;;5074411;28;20467;-74
2022/09/07 00:19:42;;;;;;;8.57;2.15;;;20.50;72.20;;;;;;5074317;28;20491;-73
2022/09/07 00:22:08;;;;;;;10.23;2.30;;;20.50;71.80;;;;;;5074184;28;20024;-74
2022/09/07 00:24:33;;;;;;;5.75;1.83;;;20.50;71.30;;;;;;5074383;28;20035;-74
2022/09/07 00:26:59;;;;;;;5.18;1.88;;;20.50;69.80;;;;;;5078691;28;20020;-81
2022/09/07 00:29:25;;;;;;;6.63;1.88;;;20.50;69.30;;;;;;5079990;28;20028;-83
2022/09/07 00:31:50;;;;;;;5.82;1.60;;;20.50;68.10;;;;;;5079455;28;20051;-79
2022/09/07 00:34:16;;;;;;;6.80;2.08;;;20.60;68.10;;;;;;5080620;28;20028;-75
2022/09/07 00:36:41;;;;;;;6.15;1.70;;;20.60;68.20;;;;;;5079466;28;20064;-76
2022/09/07 00:39:07;;;;;;;5.90;1.98;;;20.70;67.80;;;;;;5075561;28;20016;-79
2022/09/07 00:41:33;;;;;;;5.65;1.70;;;20.60;68.20;;;;;;5074664;28;20485;-80
2022/09/07 00:44:37;;;;;;;6.15;1.38;;;20.60;68.10;;;;;;5075836;28;20024;-75
2022/09/07 00:47:05;;;;;;;3.78;1.65;;;20.60;67.40;;;;;;5074254;28;20472;-74
2022/09/07 00:49:32;;;;;;;4.07;1.25;;;20.60;67.70;;;;;;5073530;28;20028;-73
2022/09/07 00:52:01;;;;;;;8.15;1.80;;;20.60;68.10;;;;;;5074124;28;20488;-78
2022/09/07 00:54:37;;;;;;;5.43;1.30;;;20.60;65.10;;;;;;5073672;28;20028;-73
2022/09/07 00:57:03;;;;;;;4.45;1.45;;;20.70;65.70;;;;;;5073371;28;20025;-73
2022/09/07 00:59:33;;;;;;;5.80;1.45;;;20.70;66.10;;;;;;5073600;28;20020;-76
2022/09/07 01:02:00;;;;;;;3.53;1.50;;;20.80;66.30;;;;;;5073758;28;20522;-86
2022/09/07 01:04:26;;;;;;;5.18;1.65;;;20.80;66.40;;;;;;5073723;28;20033;-86
2022/09/07 01:06:53;;;;;;;6.22;1.63;;;20.80;66.40;;;;;;5074131;28;20375;-85
2022/09/07 01:09:21;;;;;;;4.72;1.40;;;20.80;66.20;;;;;;5073829;28;20040;-85
2022/09/07 01:11:49;;;;;;;5.47;1.50;;;20.80;66.20;;;;;;5073807;28;20032;-87
2022/09/07 01:14:18;;;;;;;3.95;1.52;;;20.80;66.30;;;;;;5073818;28;20032;-84
2022/09/07 01:16:59;;;;;;;6.03;1.83;;;20.80;67.20;;;;;;5074156;28;20111;-73
2022/09/07 01:19:58;;;;;;;5.22;1.52;;;20.80;66.60;;;;;;5073106;28;20032;-73
2022/09/07 01:22:49;;;;;;;5.00;1.92;;;20.80;67.00;;;;;;5072949;28;20020;-74
2022/09/07 01:25:43;;;;;;;3.30;1.52;;;20.70;67.20;;;;;;5072754;28;20445;-73
2022/09/07 01:28:17;;;;;;;4.43;1.50;;;20.70;67.30;;;;;;5072856;28;20101;-73
2022/09/07 01:31:08;;;;;;;8.20;1.88;;;20.80;67.30;;;;;;5072499;28;20025;-74
2022/09/07 01:33:46;;;;;;;5.63;1.42;;;20.80;67.20;;;;;;5072756;28;20058;-74
2022/09/07 01:36:35;;;;;;;4.95;1.63;;;20.80;67.20;;;;;;5072406;28;20070;-74
2022/09/07 01:39:03;;;;;;;4.63;1.50;;;20.80;67.10;;;;;;5072815;28;20036;-73
2022/09/07 01:41:55;;;;;;;7.50;1.70;;;20.80;66.80;;;;;;5072519;28;20028;-74
2022/09/07 01:44:40;;;;;;;5.00;1.45;;;20.80;66.70;;;;;;5072351;28;20025;-74
2022/09/07 01:47:13;;;;;;;5.97;1.58;;;20.80;66.50;;;;;;5072638;28;20024;-74
2022/09/07 01:49:53;;;;;;;6.72;1.63;;;20.80;66.50;;;;;;5072420;28;20033;-73
2022/09/07 01:52:43;;;;;;;6.80;1.52;;;20.80;66.30;;;;;;5072161;28;20032;-73
2022/09/07 01:55:20;;;;;;;4.80;1.85;;;20.80;66.30;;;;;;5071953;28;20029;-74
2022/09/07 01:58:00;;;;;;;4.25;1.55;;;20.70;66.20;;;;;;5072433;28;20025;-73
2022/09/07 02:00:26;;;;;;;6.40;1.50;;;20.70;66.00;;;;;;5056732;28;20020;-73
2022/09/07 02:03:04;;;;;;;4.68;1.38;;;20.60;65.80;;;;;;5072046;28;20032;-73
2022/09/07 02:05:34;;;;;;;3.67;1.27;;;20.60;66.00;;;;;;5072676;28;20063;-87
2022/09/07 02:08:13;;;;;;;4.47;1.50;;;20.60;66.10;;;;;;5073035;28;20031;-81
2022/09/07 02:10:44;;;;;;;3.95;1.85;;;20.60;66.40;;;;;;5072634;28;20037;-86
2022/09/07 02:13:19;;;;;;;6.60;1.52;;;20.60;66.70;;;;;;5073057;28;20041;-85
2022/09/07 02:16:00;;;;;;;4.88;1.92;;;20.60;66.90;;;;;;5073034;28;20024;-87
2022/09/07 02:18:32;;;;;;;6.53;1.40;;;20.50;67.10;;;;;;5073421;28;20020;-88
2022/09/07 02:21:00;;;;;;;4.18;1.80;;;20.50;67.50;;;;;;5073644;28;20028;-88
2022/09/07 02:23:33;;;;;;;3.30;1.50;;;20.40;67.80;;;;;;5073393;28;20024;-88
2022/09/07 02:26:04;;;;;;;6.72;1.90;;;20.40;68.00;;;;;;5073286;28;20020;-88
2022/09/07 02:28:33;;;;;;;2.95;1.50;;;20.40;68.10;;;;;;5072988;28;20024;-88
2022/09/07 02:30:59;;;;;;;4.05;1.70;;;20.40;68.20;;;;;;5073292;28;20028;-88
2022/09/07 02:33:25;;;;;;;3.83;1.65;;;20.40;68.10;;;;;;5073231;28;20086;-87
2022/09/07 02:35:51;;;;;;;6.18;1.92;;;20.30;68.30;;;;;;5072678;28;20021;-89
2022/09/07 02:38:17;;;;;;;3.92;1.67;;;20.30;68.50;;;;;;5072937;28;20051;-87
2022/09/07 02:40:48;;;;;;;5.25;1.90;;;20.20;68.60;;;;;;5075611;28;20028;-88
2022/09/07 02:43:14;;;;;;;4.70;1.90;;;20.20;68.80;;;;;;5072694;28;20120;-84
2022/09/07 02:45:59;;;;;;;6.82;1.73;;;20.20;69.00;;;;;;5072490;28;20064;-88
2022/09/07 02:48:52;;;;;;;7.27;2.10;;;20.20;69.20;;;;;;5072682;28;20031;-88
2022/09/07 02:51:54;;;;;;;5.68;1.98;;;20.10;69.40;;;;;;5072572;28;20021;-88
2022/09/07 02:54:41;;;;;;;7.78;1.80;;;20.00;69.60;;;;;;5072715;28;20021;-86
2022/09/07 02:57:27;;;;;;;5.20;1.65;;;19.90;70.00;;;;;;5073366;28;20121;-86
2022/09/07 02:59:53;;;;;;;;;;;19.90;70.30;;;;;;5061953;28;20032;-86
2022/09/07 03:02:42;;;;;;;8.13;1.88;;;20.00;70.60;;;;;;5072815;28;19911;-86
2022/09/07 03:05:28;;;;;;;9.10;2.10;;;19.80;71.10;;;;;;5072491;28;20027;-74
2022/09/07 03:08:01;;;;;;;3.78;1.77;;;19.70;71.70;;;;;;5071309;28;20029;-75
2022/09/07 03:10:28;;;;;;;4.95;1.85;;;19.70;72.00;;;;;;5071177;28;20064;-74
2022/09/07 03:12:53;;;;;;;8.20;2.47;;;19.60;72.70;;;;;;5054592;28;20119;-74
2022/09/07 03:15:25;;;;;;;11.38;1.98;;;19.50;73.30;;;;;;5071267;28;20461;-74
2022/09/07 03:17:51;;;;;;;11.00;2.38;;;19.40;73.80;;;;;;5071267;28;20024;-74
2022/09/07 03:20:18;;;;;;;6.07;1.65;;;19.30;74.20;;;;;;5071300;28;20166;-82
2022/09/07 03:22:48;;;;;;;8.13;2.00;;;19.30;74.50;;;;;;5071805;28;20489;-74
2022/09/07 03:25:15;;;;;;;5.93;2.13;;;19.20;74.50;;;;;;5071487;28;20032;-75
2022/09/07 03:27:41;;;;;;;8.82;1.75;;;19.20;74.50;;;;;;5071290;28;20024;-75
2022/09/07 03:30:09;;;;;;;5.75;2.10;;;19.20;74.30;;;;;;5071227;28;20016;-74
2022/09/07 03:32:36;;;;;;;6.75;1.77;;;19.30;74.60;;;;;;5069937;28;20377;-74
2022/09/07 03:35:04;;;;;;;8.30;2.65;;;19.20;74.60;;;;;;5070989;28;20119;-74
2022/09/07 03:37:29;;;;;;;6.63;1.80;;;19.20;74.70;;;;;;5070297;28;20035;-75
2022/09/07 03:39:55;;;;;;;4.22;1.98;;;19.20;74.70;;;;;;5071040;28;20028;-74
2022/09/07 03:42:21;;;;;;;4.70;1.50;;;19.20;75.00;;;;;;5071114;28;20078;-75
2022/09/07 03:44:50;;;;;;;4.90;1.60;;;19.20;74.90;;;;;;5071097;28;20074;-74
2022/09/07 03:47:16;;;;;;;7.65;2.00;;;19.20;75.00;;;;;;5071925;28;20028;-74
2022/09/07 03:49:41;;;;;;;6.65;2.38;;;19.20;75.00;;;;;;5074680;28;20024;-76
2022/09/07 03:52:07;;;;;;;6.28;1.92;;;19.20;75.20;;;;;;5074828;28;20032;-74
2022/09/07 03:54:32;;;;;;;3.60;1.70;;;19.20;75.30;;;;;;5074772;28;20021;-76
2022/09/07 03:56:58;;;;;;;4.35;1.90;;;19.10;75.40;;;;;;5074677;28;20464;-75
2022/09/07 03:59:24;;;;;;;7.93;2.35;;;19.10;75.40;;;;;;5074647;28;20013;-76
2022/09/07 04:01:49;;;;;;;5.50;2.38;;;19.20;75.50;;;;;;5076005;28;20514;-75
2022/09/07 04:04:15;;;;;;;7.65;2.30;;;19.10;75.60;;;;;;5074296;28;20653;-74
2022/09/07 04:06:40;;;;;;;10.18;2.88;;;19.10;75.60;;;;;;5074281;28;20016;-76
2022/09/07 04:09:10;;;;;;;5.82;2.80;;;19.00;75.70;;;;;;5074390;28;20024;-79
2022/09/07 04:11:36;;;;;;;8.02;2.42;;;19.00;75.80;;;;;;5074326;28;20056;-75
2022/09/07 04:14:02;;;;;;;11.82;3.00;;;19.00;76.10;;;;;;5075640;28;20107;-74
2022/09/07 04:16:28;;;;;;;5.82;2.30;;;18.90;76.30;;;;;;5074447;28;20511;-74
2022/09/07 04:18:54;;;;;;;7.05;2.30;;;18.90;76.50;;;;;;5074275;28;20020;-75
2022/09/07 04:21:22;;;;;;;8.27;2.55;;;18.80;76.60;;;;;;5074150;28;20484;-76
2022/09/07 04:23:48;;;;;;;12.73;2.25;;;18.80;76.90;;;;;;5074006;28;20020;-74
2022/09/07 04:26:23;;;;;;;7.82;2.22;;;18.80;77.10;;;;;;5073937;28;20107;-75
2022/09/07 04:28:49;;;;;;;6.28;1.80;;;18.70;77.30;;;;;;5073746;28;20030;-76
2022/09/07 04:31:16;;;;;;;5.20;2.00;;;18.70;77.30;;;;;;5073671;28;20028;-76
2022/09/07 04:33:44;;;;;;;5.30;2.13;;;18.70;78.00;;;;;;5073853;28;20396;-75
2022/09/07 04:36:10;;;;;;;5.68;1.63;;;18.70;77.30;;;;;;5073808;28;20016;-78
2022/09/07 04:38:38;;;;;;;8.30;2.40;;;18.70;77.10;;;;;;5073711;28;20439;-75
2022/09/07 04:41:09;;;;;;;5.22;2.15;;;18.70;77.20;;;;;;5073839;28;20354;-75
2022/09/07 04:43:37;;;;;;;5.03;2.13;;;18.70;77.30;;;;;;5073676;28;20373;-75
2022/09/07 04:46:09;;;;;;;9.45;2.30;;;18.70;77.50;;;;;;5073968;28;20116;-75
2022/09/07 04:48:35;;;;;;;3.92;2.15;;;18.60;78.40;;;;;;5073519;28;20119;-74
2022/09/07 04:51:05;;;;;;;7.10;2.15;;;18.60;77.70;;;;;;5073674;28;20063;-74
2022/09/07 04:53:32;;;;;;;7.90;1.98;;;18.60;77.70;;;;;;5073316;28;20040;-74
2022/09/07 04:55:58;;;;;;;8.05;2.15;;;18.60;77.80;;;;;;5073604;28;20047;-74
2022/09/07 04:58:24;;;;;;;4.05;1.58;;;18.60;77.90;;;;;;5072953;28;20453;-86
2022/09/07 05:00:49;;;;;;;7.68;2.53;;;18.60;77.80;;;;;;5073859;28;20035;-75
2022/09/07 05:03:15;;;;;;;8.98;2.60;;;18.60;77.90;;;;;;5073065;28;20024;-74
2022/09/07 05:05:40;;;;;;;12.75;2.22;;;18.70;78.10;;;;;;5072887;28;20468;-74
2022/09/07 05:08:07;;;;;;;11.25;2.33;;;18.70;78.10;;;;;;5073477;28;20044;-76
2022/09/07 05:10:33;;;;;;;7.63;2.10;;;18.70;78.00;;;;;;5073081;28;20511;-80
2022/09/07 05:12:58;;;;;;;5.15;2.00;;;18.70;77.90;;;;;;5073068;28;20040;-74
2022/09/07 05:15:26;;;;;;;7.88;1.70;;;18.80;77.90;;;;;;5073211;28;20017;-74
2022/09/07 05:17:52;;;;;;;7.10;2.67;;;18.80;77.80;;;;;;5072966;28;20158;-74
2022/09/07 05:20:19;;;;;;;12.10;5.07;;;18.80;77.80;;;;;;5073102;28;20067;-80
2022/09/07 05:22:45;;;;;;;7.18;2.53;;;18.80;77.70;;;;;;5073262;28;20029;-74
2022/09/07 05:25:11;;;;;;;5.93;2.47;;;18.90;77.70;;;;;;5072410;28;20031;-74
2022/09/07 05:27:37;;;;;;;6.95;2.40;;;19.00;77.60;;;;;;5072927;28;20032;-74
2022/09/07 05:30:03;;;;;;;4.82;2.20;;;19.10;77.60;;;;;;5073286;28;20028;-73
2022/09/07 05:32:28;;;;;;;6.38;2.17;;;19.20;77.40;;;;;;5072832;28;20036;-74
2022/09/07 05:34:54;;;;;;;8.93;2.30;;;19.20;77.20;;;;;;5072495;28;20020;-74
2022/09/07 05:37:20;;;;;;;4.20;1.90;;;19.30;77.00;;;;;;5073814;28;20445;-74
2022/09/07 05:39:45;;;;;;;7.65;2.47;;;19.40;76.80;;;;;;5072362;28;20111;-74
2022/09/07 05:42:11;;;;;;;8.63;2.45;;;19.50;76.70;;;;;;5072457;28;20116;-75
2022/09/07 05:44:41;;;;;;;8.48;2.40;;;19.50;76.30;;;;;;5072767;28;20020;-84
2022/09/07 05:47:06;;;;;;;9.32;2.20;;;19.60;76.20;;;;;;5072332;28;20032;-78
2022/09/07 05:49:32;;;;;;;5.60;2.08;;;19.60;75.80;;;;;;5072385;28;20376;-74
2022/09/07 05:51:58;;;;;;;8.45;2.45;;;19.70;75.70;;;;;;5072529;28;20068;-74
2022/09/07 05:54:23;;;;;;;7.70;2.70;;;19.80;75.50;;;;;;5071929;28;20546;-74
2022/09/07 05:56:49;;;;;;;8.45;2.60;;;19.90;75.40;;;;;;5072587;28;20020;-74
2022/09/07 05:59:14;;;;;;;8.45;2.50;;;19.90;75.20;;;;;;5071928;28;20025;-74
2022/09/07 06:01:40;;;;;;;8.65;2.88;;;20.00;74.80;;;;;;5071742;28;20123;-75
2022/09/07 06:04:05;;;;;;;9.38;2.72;;;20.00;74.90;;;;;;5072098;28;20090;-74
2022/09/07 06:06:31;;;;;;;6.93;2.40;;;20.00;74.80;;;;;;5072251;28;20060;-74
2022/09/07 06:08:57;;;;;;;9.25;2.15;;;20.00;74.70;;;;;;5071909;28;20024;-75
2022/09/07 06:11:24;;;;;;;6.63;2.75;;;20.10;74.60;;;;;;5071082;28;20127;-74
2022/09/07 06:13:50;;;;;;;7.35;2.15;;;20.30;74.30;;;;;;5071820;28;20037;-74
2022/09/07 06:16:17;;;;;;;6.72;2.40;;;20.40;74.80;;;;;;5071774;28;20420;-74
2022/09/07 06:18:48;;;;;;;7.15;2.28;;;20.50;73.50;;;;;;5071836;28;20032;-74
2022/09/07 06:21:21;;;;;;;8.93;2.47;;;20.60;73.20;;;;;;5071821;28;20025;-73
2022/09/07 06:23:47;;;;;;;9.73;2.53;;;20.80;72.90;;;;;;5071687;28;20025;-73
2022/09/07 06:26:14;;;;;;;7.85;2.10;;;20.90;72.30;;;;;;5071749;28;20025;-74
2022/09/07 06:28:44;;;;;;;7.78;2.53;;;21.00;71.60;;;;;;5071672;28;20016;-78
2022/09/07 06:31:12;;;;;;;10.55;2.47;;;21.30;71.00;;;;;;5071710;28;20032;-74
2022/09/07 06:33:39;;;;;;;10.27;2.38;;;21.30;70.30;;;;;;5071705;28;20067;-74
2022/09/07 06:36:13;;;;;;;7.85;2.42;;;21.40;69.80;;;;;;5071401;28;20099;-74
2022/09/07 06:38:39;;;;;;;8.52;2.45;;;21.50;69.70;;;;;;5071711;28;20073;-78
2022/09/07 06:41:10;;;;;;;10.52;2.80;;;21.60;69.10;;;;;;5071733;28;20119;-73
2022/09/07 06:43:36;;;;;;;9.73;2.60;;;21.80;68.80;;;;;;5072826;28;20025;-74
2022/09/07 06:46:02;;;;;;;3.95;1.90;;;22.00;67.80;;;;;;5071525;28;20115;-73
2022/09/07 06:48:28;;;;;;;6.68;1.75;;;22.10;67.50;;;;;;5071486;28;20028;-73
2022/09/07 06:51:00;;;;;;;10.02;2.28;;;22.20;67.10;;;;;;5071697;28;20377;-73
2022/09/07 06:53:28;;;;;;;4.88;1.90;;;22.30;66.70;;;;;;5071534;28;20033;-73
2022/09/07 06:55:54;;;;;;;8.50;2.25;;;22.40;66.30;;;;;;5071331;28;20017;-73
2022/09/07 06:58:20;;;;;;;7.10;2.00;;;22.50;66.10;;;;;;5071403;28;20047;-74
2022/09/07 07:00:46;;;;;;;6.80;2.17;;;22.50;66.70;;;;;;5071152;28;20017;-76
2022/09/07 07:03:12;;;;;;;11.48;2.22;;;22.60;65.50;;;;;;5072046;28;20128;-77
2022/09/07 07:05:38;;;;;;;6.82;2.30;;;22.60;66.30;;;;;;5077342;28;20028;-77
2022/09/07 07:08:03;;;;;;;8.35;2.17;;;22.70;65.20;;;;;;5070511;28;20021;-76
2022/09/07 07:10:30;;;;;;;7.93;2.10;;;22.70;65.30;;;;;;5070883;28;20040;-75
2022/09/07 07:12:55;;;;;;;6.75;1.75;;;22.70;65.30;;;;;;5071372;28;20071;-78
2022/09/07 07:15:26;;;;;;;7.47;1.50;;;22.80;65.10;;;;;;5070922;28;20052;-85
2022/09/07 07:17:51;;;;;;;11.55;2.30;;;22.90;65.10;;;;;;5072014;28;20032;-76
2022/09/07 07:20:17;;;;;;;7.57;2.42;;;22.90;65.10;;;;;;5071125;28;20021;-75
2022/09/07 07:22:43;;;;;;;9.63;2.42;;;23.00;64.40;;;;;;5073867;28;20115;-74
2022/09/07 07:25:08;;;;;;;6.32;2.03;;;23.00;64.10;;;;;;5074202;28;20431;-74
2022/09/07 07:27:34;;;;;;;8.40;2.17;;;23.00;64.10;;;;;;5074338;28;20044;-74
2022/09/07 07:29:59;;;;;;;8.68;2.13;;;22.90;64.90;;;;;;5074308;28;20025;-74
2022/09/07 07:32:25;;;;;;;8.27;2.22;;;22.90;65.10;;;;;;5074278;28;20036;-73
2022/09/07 07:34:50;;;;;;;9.13;2.28;;;22.70;65.90;;;;;;5074658;28;20103;-73
2022/09/07 07:37:16;;;;;;;9.18;2.75;;;22.60;65.50;;;;;;5074180;28;20060;-73
2022/09/07 07:39:41;;;;;;;11.52;2.13;;;22.40;66.30;;;;;;5074216;28;20025;-73
2022/09/07 07:42:07;;;;;;;5.15;2.20;;;22.40;66.30;;;;;;5074355;28;20013;-73
2022/09/07 07:44:33;;;;;;;7.30;2.67;;;22.40;67.70;;;;;;5074204;28;20473;-73
2022/09/07 07:46:59;;;;;;;12.27;2.72;;;22.50;66.20;;;;;;5074300;28;20035;-74
2022/09/07 07:49:25;;;;;;;13.00;2.65;;;22.50;65.90;;;;;;5074427;28;20024;-74
2022/09/07 07:51:54;;;;;;;8.57;2.45;;;22.60;66.10;;;;;;5074383;28;20082;-73
2022/09/07 07:54:20;;;;;;;10.05;2.85;;;22.70;65.20;;;;;;5074335;28;20032;-73
2022/09/07 07:56:45;;;;;;;8.40;2.42;;;22.70;65.30;;;;;;5074112;28;20492;-73
2022/09/07 07:59:11;;;;;;;11.90;2.60;;;22.70;65.40;;;;;;5074211;28;20025;-75
2022/09/07 08:01:36;;;;;;;7.82;2.67;;;22.80;65.10;;;;;;5073745;28;20126;-75
2022/09/07 08:04:02;;;;;;;10.68;2.40;;;22.90;64.80;;;;;;5074280;28;20423;-74
2022/09/07 08:06:28;;;;;;;8.98;2.17;;;22.90;64.00;;;;;;5074089;28;20027;-74
2022/09/07 08:08:54;;;;;;;8.57;2.03;;;22.90;63.70;;;;;;5073863;28;20021;-75
2022/09/07 08:11:21;;;;;;;8.85;1.90;;;22.90;63.80;;;;;;5073721;28;20028;-75
2022/09/07 08:13:49;;;;;;;8.85;2.35;;;23.00;63.80;;;;;;5073680;28;20127;-75
2022/09/07 08:16:16;;;;;;;8.00;2.40;;;23.00;63.90;;;;;;5073638;28;20025;-74
2022/09/07 08:18:42;;;;;;;9.65;2.38;;;23.20;64.40;;;;;;5073895;28;20025;-74
2022/09/07 08:21:11;;;;;;;8.93;2.30;;;23.30;62.30;;;;;;5073712;28;20024;-74
2022/09/07 08:23:37;;;;;;;13.57;2.38;;;23.40;60.80;;;;;;5073797;28;20016;-74
2022/09/07 08:26:04;;;;;;;7.70;2.17;;;23.40;60.00;;;;;;5073566;28;20024;-74
2022/09/07 08:28:32;;;;;;;10.23;2.50;;;23.50;59.60;;;;;;5073437;28;20021;-74
2022/09/07 08:30:58;;;;;;;12.00;1.92;;;23.60;59.20;;;;;;5073502;28;20460;-73
2022/09/07 08:33:24;;;;;;;10.25;2.17;;;23.50;59.30;;;;;;5072319;28;20380;-72
2022/09/07 08:35:54;;;;;;;7.22;1.88;;;23.50;60.10;;;;;;5073007;28;20020;-73
2022/09/07 08:38:20;;;;;;;7.00;2.47;;;23.60;60.90;;;;;;5073320;28;20035;-77
2022/09/07 08:40:48;;;;;;;7.80;2.13;;;23.70;60.30;;;;;;5082060;28;20021;-82
2022/09/07 08:43:34;;;;;;;11.27;2.63;;;24.00;59.50;;;;;;5072615;28;20028;-73
2022/09/07 08:46:37;;;;;;;8.30;2.00;;;24.20;58.70;;;;;;5073169;28;20012;-76
2022/09/07 08:49:12;;;;;;;6.65;1.90;;;24.20;57.10;;;;;;5073113;28;20105;-78
2022/09/07 08:51:45;;;;;;;7.05;2.15;;;24.20;57.40;;;;;;5074241;28;20021;-75
2022/09/07 08:54:15;;;;;;;6.03;2.03;;;24.10;57.10;;;;;;5073260;28;20128;-75
2022/09/07 08:56:47;;;;;;;6.30;1.90;;;24.10;58.00;;;;;;5072814;28;20017;-77
2022/09/07 08:59:25;;;;;;;8.20;2.03;;;24.20;57.50;;;;;;5073141;28;20032;-76
2022/09/07 09:01:51;;;;;;;6.90;2.08;;;24.00;57.80;;;;;;5072878;28;20029;-77
2022/09/07 09:04:22;;;;;;;6.15;1.70;;;23.70;58.50;;;;;;5073029;28;20028;-76
2022/09/07 09:06:56;;;;;;;4.70;2.13;;;23.70;58.70;;;;;;5073098;28;20113;-75
2022/09/07 09:09:33;;;;;;;5.75;1.90;;;23.50;59.00;;;;;;5072768;28;20036;-77
2022/09/07 09:11:59;;;;;;;6.32;2.13;;;23.40;59.50;;;;;;5071708;28;20055;-76
2022/09/07 09:15:03;;;;;;;7.70;2.00;;;23.40;59.50;;;;;;5071854;28;20425;-82
2022/09/07 09:17:58;;;;;;;9.65;2.42;;;23.50;58.60;;;;;;5072071;28;20082;-78
2022/09/07 09:20:32;;;;;;;8.18;1.73;;;23.70;58.90;;;;;;5069736;28;20028;-77
2022/09/07 09:23:16;;;;;;;5.82;2.17;;;23.70;58.00;;;;;;5072185;28;20024;-76
2022/09/07 09:25:52;;;;;;;9.93;1.90;;;23.70;57.90;;;;;;5072824;28;20414;-75
2022/09/07 09:28:18;;;;;;;10.25;2.00;;;23.50;58.30;;;;;;5072636;28;20381;-76
2022/09/07 09:30:46;;;;;;;6.65;2.35;;;23.60;58.30;;;;;;5072103;28;20025;-78
2022/09/07 09:33:24;;;;;;;8.65;2.55;;;23.80;58.90;;;;;;5072134;28;20500;-82
2022/09/07 09:35:52;;;;;;;5.18;1.80;;;24.10;58.30;;;;;;5071926;28;20085;-76
2022/09/07 09:38:42;;;;;;;5.40;1.95;;;24.30;57.30;;;;;;5072614;28;20025;-77
2022/09/07 09:41:13;;;;;;;9.63;2.30;;;24.40;57.00;;;;;;5072159;28;20362;-75
2022/09/07 09:43:56;;;;;;;4.93;1.85;;;24.50;56.30;;;;;;5072189;28;20024;-76
2022/09/07 09:46:28;;;;;;;3.50;1.40;;;24.90;55.80;;;;;;5072190;28;20028;-76
2022/09/07 09:48:58;;;;;;;4.45;1.58;;;25.10;50.60;;;;;;5072065;28;20116;-77
2022/09/07 09:51:26;;;;;;;2.38;1.35;;;25.10;49.20;;;;;;5072087;28;20049;-80
2022/09/07 09:54:05;;;;;;;3.47;1.65;;;25.00;51.00;;;;;;5071979;28;20029;-76
2022/09/07 09:56:42;;;;;;;2.55;1.42;;;25.20;49.50;;;;;;5072142;28;20123;-80
2022/09/07 09:59:17;;;;;;;4.00;1.40;;;25.30;47.20;;;;;;5071278;28;20153;-75
2022/09/07 10:01:46;;;;;;;5.38;1.45;;;25.50;48.00;;;;;;5068534;28;20052;-88
2022/09/07 10:04:34;;;;;;;6.10;1.30;;;25.40;45.10;;;;;;5073254;28;20496;-88
2022/09/07 10:07:31;;;;;;;7.18;1.73;;;25.50;45.10;;;;;;5074566;28;20032;-91
2022/09/07 10:09:59;;;;;;;6.55;1.30;;;25.40;45.50;;;;;;5073307;28;20044;-89
2022/09/07 10:12:53;;;;;;;6.15;1.70;;;25.40;46.00;;;;;;5072868;28;20395;-84
2022/09/07 10:15:40;;;;;;;5.53;1.83;;;25.40;47.80;;;;;;5072476;28;20032;-91
2022/09/07 10:18:08;;;;;;;3.13;1.20;;;25.40;46.00;;;;;;5072371;28;20029;-75
2022/09/07 10:20:37;;;;;;;7.90;1.80;;;25.60;44.70;;;;;;5071283;28;20043;-75
2022/09/07 10:23:05;;;;;;;3.50;1.30;;;25.70;45.40;;;;;;5070122;28;20111;-74
2022/09/07 10:25:38;;;;;;;5.88;1.20;;;25.80;44.10;;;;;;5070687;28;20020;-74
2022/09/07 10:28:13;;;;;;;2.95;1.30;;;26.00;44.10;;;;;;5071479;28;20503;-74
2022/09/07 10:31:00;;;;;;;2.72;1.30;;;26.50;43.40;;;;;;5071100;28;20024;-74
2022/09/07 10:33:50;;;;;;;6.65;1.17;;;26.50;41.80;;;;;;5071334;28;20032;-74
2022/09/07 10:36:35;;;;;;;2.20;1.08;;;26.70;40.40;;;;;;5071648;28;20017;-74
2022/09/07 10:39:07;;;;;;;7.63;1.20;;;27.00;40.90;;;;;;5071328;28;20051;-74
2022/09/07 10:41:51;;;;;;;5.97;1.55;;;27.00;37.80;;;;;;5071326;28;20052;-73
2022/09/07 10:44:37;;;;;;;4.45;1.23;;;27.20;39.30;;;;;;5071639;28;20093;-77
2022/09/07 10:47:21;;;;;;;4.68;1.08;;;27.00;38.80;;;;;;5071623;28;20025;-77
2022/09/07 10:49:56;;;;;;;3.63;1.25;;;27.30;37.90;;;;;;5071550;28;20442;-78
2022/09/07 10:52:36;;;;;;;4.95;1.25;;;27.30;39.20;;;;;;5071057;28;20480;-77
2022/09/07 10:55:29;;;;;;;3.35;1.33;;;26.90;40.40;;;;;;5071524;28;20036;-78
2022/09/07 10:58:12;;;;;;;7.00;1.55;;;26.80;41.30;;;;;;5074562;28;20056;-78
2022/09/07 11:00:59;;;;;;;4.05;1.52;;;26.50;42.40;;;;;;5075293;28;20028;-76
2022/09/07 11:03:53;;;;;;;4.82;1.30;;;26.20;42.80;;;;;;5075594;28;20027;-76
2022/09/07 11:06:24;;;;;;;4.78;1.42;;;26.20;42.90;;;;;;5075516;28;20028;-78
2022/09/07 11:09:16;;;;;;;4.78;1.42;;;26.40;43.20;;;;;;5075395;28;20024;-78
2022/09/07 11:12:05;;;;;;;4.93;1.40;;;26.60;43.50;;;;;;5073099;28;20052;-71
2022/09/07 11:14:47;;;;;;;5.45;1.50;;;26.60;42.80;;;;;;5075180;28;20020;-72
2022/09/07 11:17:17;;;;;;;3.70;1.20;;;26.90;40.90;;;;;;5075100;28;20035;-72
2022/09/07 11:20:04;;;;;;;4.57;1.27;;;27.40;40.70;;;;;;5075251;28;20044;-72
2022/09/07 11:22:44;;;;;;;3.38;1.10;;;27.80;39.50;;;;;;5074870;28;20030;-73
2022/09/07 11:25:18;;;;;;;3.33;1.15;;;28.20;38.20;;;;;;5074954;28;20029;-73
2022/09/07 11:28:00;;;;;;;6.07;1.55;;;27.80;38.20;;;;;;5074925;28;20040;-79
2022/09/07 11:30:31;;;;;;;2.53;1.30;;;28.00;39.20;;;;;;5074822;28;20079;-77
2022/09/07 11:33:10;;;;;;;6.90;1.92;;;28.20;38.40;;;;;;5074691;28;20044;-75
2022/09/07 11:35:43;;;;;;;4.78;1.00;;;28.10;38.10;;;;;;5074649;28;20021;-74
2022/09/07 11:38:24;;;;;;;4.65;1.20;;;27.80;38.70;;;;;;5074487;28;20491;-76
2022/09/07 11:41:12;;;;;;;5.43;1.48;;;27.50;39.70;;;;;;5074320;28;20031;-72
2022/09/07 11:43:45;;;;;;;2.20;1.00;;;27.40;38.50;;;;;;5074554;28;20124;-72
2022/09/07 11:46:20;;;;;;;4.30;1.30;;;27.40;39.00;;;;;;5074351;28;20033;-77
2022/09/07 11:48:53;;;;;;;2.72;1.20;;;27.80;36.80;;;;;;5073999;28;20107;-76
2022/09/07 11:51:34;;;;;;;3.95;1.05;;;28.20;37.00;;;;;;5074312;28;20029;-73
2022/09/07 11:54:11;;;;;;;4.32;1.33;;;28.80;34.70;;;;;;5074262;28;20032;-72
2022/09/07 11:56:40;;;;;;;2.90;1.20;;;29.10;34.50;;;;;;5074330;28;20025;-76
2022/09/07 11:59:27;;;;;;;2.30;1.27;;;29.00;36.00;;;;;;5073908;28;20043;-73
2022/09/07 12:02:03;;;;;;;3.35;1.00;;;29.00;35.90;;;;;;5074660;28;20036;-75
2022/09/07 12:04:47;;;;;;;4.28;1.20;;;29.00;35.50;;;;;;5074134;28;20485;-73
2022/09/07 12:07:25;;;;;;;2.93;1.07;;;29.50;33.50;;;;;;5073072;28;20025;-72
2022/09/07 12:10:30;;;;;;;2.90;0.93;;;29.70;32.30;;;;;;5072851;28;20291;-76
2022/09/07 12:13:30;;;;;;;1.65;0.77;;;29.40;32.50;;;;;;5071016;28;20551;-74
2022/09/07 12:16:02;;;;;;;2.60;0.90;;;29.40;32.20;;;;;;5071414;28;20017;-72
2022/09/07 12:18:47;;;;;;;4.47;0.90;;;30.00;29.70;;;;;;5073994;28;20051;-71
2022/09/07 12:21:42;;;;;;;3.88;0.98;;;30.20;28.60;;;;;;5070925;28;20036;-72
2022/09/07 12:24:31;;;;;;;1.58;0.80;;;30.10;29.10;;;;;;5073638;28;20031;-72
2022/09/07 12:26:58;;;;;;;5.63;1.15;;;30.40;28.20;;;;;;5073609;28;20509;-72
2022/09/07 12:29:26;;;;;;;4.45;1.40;;;30.60;28.30;;;;;;5073677;28;20052;-73
2022/09/07 12:31:56;;;;;;;1.95;0.85;;;30.30;29.40;;;;;;5074915;28;20132;-75
2022/09/07 12:34:30;;;;;;;2.00;1.00;;;29.40;30.30;;;;;;5074886;28;20016;-78
2022/09/07 12:36:58;;;;;;;5.65;0.98;;;28.70;31.50;;;;;;5074744;28;20021;-71
2022/09/07 12:39:25;;;;;;;2.22;0.98;;;28.20;32.80;;;;;;5073384;28;20025;-73
2022/09/07 12:42:13;;;;;;;3.33;1.10;;;28.10;34.60;;;;;;5074790;28;20522;-77
2022/09/07 12:44:39;;;;;;;3.75;1.20;;;28.20;34.20;;;;;;5074720;28;20028;-74
2022/09/07 12:47:11;;;;;;;2.65;1.10;;;28.20;36.30;;;;;;5074241;28;20031;-72
2022/09/07 12:50:04;;;;;;;5.22;1.60;;;28.20;36.40;;;;;;5074236;28;20033;-72
2022/09/07 12:52:44;;;;;;;7.13;1.20;;;28.00;36.80;;;;;;5064144;28;20130;-79
2022/09/07 12:55:24;;;;;;;4.22;1.00;;;27.90;36.10;;;;;;5074073;28;20021;-74
2022/09/07 12:57:57;;;;;;;1.90;0.75;;;27.90;36.80;;;;;;5074017;28;20021;-77
2022/09/07 13:00:30;;;;;;;4.47;0.90;;;28.10;36.30;;;;;;5073656;28;20028;-74
2022/09/07 13:03:17;;;;;;;4.05;1.23;;;28.20;34.30;;;;;;5072824;28;20101;-77
2022/09/07 13:05:59;;;;;;;2.83;1.00;;;28.10;33.40;;;;;;5073833;28;20063;-77
2022/09/07 13:08:41;;;;;;;3.00;0.63;;;28.00;32.90;;;;;;5073938;28;20386;-78
2022/09/07 13:11:19;;;;;;;3.42;1.17;;;27.70;32.80;;;;;;5073825;28;20044;-74